AFR842 LFPG-TFFR
Flight info
| Callsign | AFR842 |
|---|---|
| Flight time | N/A |
| Altitude | 32000 |
| Route | LGL UN491 UPALO/N0480F330 UN585 FEJAC DCT BADUR DCT REGHI/M083F320 DCT ETIKI DCT 47N015W 46N020W 40N030W/M083F340 33N040W 29N045W 25N050W/M083F360 21N055W DCT BNJEE/N0482F360 DCT BOSET BOSET2A |
| Aircraft | B77W/H-SDE1E2E3FGHIJ2J3J4J5M1RWXY/LB1D1 |
Departure
| Time | 2026-05-05 16:49 |
|---|---|
| Airport | Charles de Gaulle International Airport (LFPG) |
Arrival
| Time | N/A |
|---|---|
| Airport | Maryse Condé International Airport (TFFR) |
| Time | Latitude | Longitude | Altitude | Speed | Heading |
|---|---|---|---|---|---|
| 2026-05-05 16:21 | 49.00138 | 2.57725 | 352 ft | 0 kts | 355° |
| 2026-05-05 16:34 | 49.00132 | 2.57726 | 352 ft | 2 kts | 355° |
| 2026-05-05 16:34 | 49.00117 | 2.57726 | 352 ft | 2 kts | 9° |
| 2026-05-05 16:35 | 49.00102 | 2.57720 | 352 ft | 2 kts | 22° |
| 2026-05-05 16:35 | 49.00089 | 2.57710 | 352 ft | 2 kts | 34° |
| 2026-05-05 16:35 | 49.00077 | 2.57696 | 352 ft | 2 kts | 46° |
| 2026-05-05 16:35 | 49.00068 | 2.57679 | 352 ft | 2 kts | 58° |
| 2026-05-05 16:36 | 49.00061 | 2.57659 | 352 ft | 2 kts | 70° |
| 2026-05-05 16:36 | 49.00057 | 2.57637 | 353 ft | 2 kts | 82° |
| 2026-05-05 16:36 | 49.00056 | 2.57627 | 353 ft | 0 kts | 86° |
| 2026-05-05 16:39 | 49.00057 | 2.57647 | 352 ft | 4 kts | 85° |
| 2026-05-05 16:39 | 49.00062 | 2.57726 | 351 ft | 10 kts | 85° |
| 2026-05-05 16:39 | 49.00068 | 2.57842 | 350 ft | 11 kts | 85° |
| 2026-05-05 16:40 | 49.00075 | 2.57968 | 348 ft | 12 kts | 85° |
| 2026-05-05 16:40 | 49.00083 | 2.58102 | 345 ft | 13 kts | 85° |
| 2026-05-05 16:40 | 49.00090 | 2.58232 | 343 ft | 7 kts | 86° |
| 2026-05-05 16:40 | 49.00080 | 2.58308 | 342 ft | 6 kts | 135° |
| 2026-05-05 16:41 | 49.00034 | 2.58316 | 342 ft | 8 kts | 205° |
| 2026-05-05 16:41 | 49.00006 | 2.58228 | 342 ft | 10 kts | 264° |
| 2026-05-05 16:41 | 48.99999 | 2.58113 | 344 ft | 11 kts | 266° |
| 2026-05-05 16:41 | 48.99993 | 2.57988 | 346 ft | 12 kts | 266° |
| 2026-05-05 16:42 | 48.99986 | 2.57842 | 349 ft | 14 kts | 265° |
| 2026-05-05 16:42 | 48.99977 | 2.57675 | 351 ft | 16 kts | 265° |
| 2026-05-05 16:42 | 48.99968 | 2.57506 | 354 ft | 15 kts | 265° |
| 2026-05-05 16:42 | 48.99960 | 2.57358 | 355 ft | 13 kts | 266° |
| 2026-05-05 16:43 | 48.99954 | 2.57223 | 357 ft | 12 kts | 266° |
| 2026-05-05 16:43 | 48.99946 | 2.57085 | 357 ft | 13 kts | 265° |
| 2026-05-05 16:43 | 48.99938 | 2.56943 | 357 ft | 14 kts | 265° |
| 2026-05-05 16:43 | 48.99928 | 2.56785 | 356 ft | 15 kts | 265° |
| 2026-05-05 16:44 | 48.99918 | 2.56606 | 354 ft | 17 kts | 266° |
| 2026-05-05 16:44 | 48.99909 | 2.56415 | 352 ft | 18 kts | 266° |
| 2026-05-05 16:44 | 48.99899 | 2.56227 | 348 ft | 14 kts | 265° |
| 2026-05-05 16:44 | 48.99892 | 2.56105 | 346 ft | 7 kts | 265° |
| 2026-05-05 16:45 | 48.99860 | 2.56026 | 344 ft | 10 kts | 204° |
| 2026-05-05 16:45 | 48.99804 | 2.55975 | 343 ft | 9 kts | 243° |
| 2026-05-05 16:45 | 48.99778 | 2.55858 | 341 ft | 13 kts | 251° |
| 2026-05-05 16:45 | 48.99769 | 2.55819 | 340 ft | 13 kts | 250° |
| 2026-05-05 16:46 | 48.99748 | 2.55674 | 339 ft | 14 kts | 265° |
| 2026-05-05 16:46 | 48.99739 | 2.55512 | 336 ft | 15 kts | 265° |
| 2026-05-05 16:46 | 48.99731 | 2.55354 | 335 ft | 14 kts | 266° |
| 2026-05-05 16:46 | 48.99724 | 2.55212 | 334 ft | 12 kts | 266° |
| 2026-05-05 16:47 | 48.99719 | 2.55123 | 333 ft | 3 kts | 250° |
| 2026-05-05 16:47 | 48.99699 | 2.55103 | 333 ft | 4 kts | 196° |
| 2026-05-05 16:47 | 48.99663 | 2.55132 | 333 ft | 8 kts | 127° |
| 2026-05-05 16:47 | 48.99638 | 2.55200 | 334 ft | 6 kts | 118° |
| 2026-05-05 16:48 | 48.99614 | 2.55275 | 334 ft | 9 kts | 115° |
| 2026-05-05 16:48 | 48.99583 | 2.55377 | 335 ft | 14 kts | 108° |
| 2026-05-05 16:48 | 48.99587 | 2.55620 | 337 ft | 34 kts | 85° |
| 2026-05-05 16:48 | 48.99627 | 2.56363 | 346 ft | 109 kts | 85° |
| 2026-05-05 16:49 | 48.99709 | 2.57895 | 346 ft | 180 kts | 85° |
| 2026-05-05 16:49 | 48.99820 | 2.59999 | 807 ft | 207 kts | 84° |
| 2026-05-05 16:49 | 48.99892 | 2.62078 | 2018 ft | 197 kts | 83° |
| 2026-05-05 16:49 | 49.00012 | 2.64162 | 2511 ft | 206 kts | 79° |
| 2026-05-05 16:50 | 49.00161 | 2.66407 | 2777 ft | 227 kts | 81° |
| 2026-05-05 16:50 | 49.00299 | 2.68923 | 3175 ft | 245 kts | 82° |
| 2026-05-05 16:50 | 49.00434 | 2.71527 | 3753 ft | 254 kts | 83° |
| 2026-05-05 16:50 | 49.00571 | 2.74209 | 4491 ft | 258 kts | 83° |
| 2026-05-05 16:51 | 49.00710 | 2.76940 | 5273 ft | 260 kts | 83° |
| 2026-05-05 16:51 | 49.00686 | 2.79676 | 5959 ft | 266 kts | 96° |
| 2026-05-05 16:51 | 49.00388 | 2.82470 | 6699 ft | 269 kts | 98° |
| 2026-05-05 16:51 | 49.00068 | 2.85274 | 7420 ft | 271 kts | 98° |
| 2026-05-05 16:52 | 48.99742 | 2.88092 | 8102 ft | 274 kts | 98° |
| 2026-05-05 16:52 | 48.99412 | 2.90953 | 8790 ft | 276 kts | 99° |
| 2026-05-05 16:52 | 48.99075 | 2.93859 | 9491 ft | 278 kts | 99° |
| 2026-05-05 16:52 | 48.98728 | 2.96740 | 10095 ft | 284 kts | 103° |
| 2026-05-05 16:53 | 48.98000 | 2.99648 | 10361 ft | 302 kts | 117° |
| 2026-05-05 16:53 | 48.96791 | 3.02343 | 10649 ft | 321 kts | 131° |
| 2026-05-05 16:53 | 48.95100 | 3.04655 | 10885 ft | 340 kts | 144° |
| 2026-05-05 16:53 | 48.92921 | 3.06362 | 11084 ft | 362 kts | 160° |
| 2026-05-05 16:54 | 48.90408 | 3.07110 | 11447 ft | 377 kts | 177° |
| 2026-05-05 16:54 | 48.87821 | 3.06681 | 12226 ft | 380 kts | 194° |
| 2026-05-05 16:54 | 48.85406 | 3.05121 | 13080 ft | 380 kts | 211° |
| 2026-05-05 16:54 | 48.83368 | 3.02576 | 13803 ft | 384 kts | 228° |
| 2026-05-05 16:55 | 48.81875 | 2.99193 | 14487 ft | 389 kts | 245° |
| 2026-05-05 16:55 | 48.81096 | 2.95255 | 15145 ft | 394 kts | 262° |
| 2026-05-05 16:55 | 48.80932 | 2.91121 | 15881 ft | 396 kts | 268° |
| 2026-05-05 16:55 | 48.80870 | 2.86949 | 16574 ft | 399 kts | 268° |
| 2026-05-05 16:56 | 48.80810 | 2.82778 | 17256 ft | 402 kts | 268° |
| 2026-05-05 16:56 | 48.80747 | 2.78518 | 17872 ft | 406 kts | 268° |
| 2026-05-05 16:56 | 48.80683 | 2.74248 | 18499 ft | 410 kts | 268° |
| 2026-05-05 16:56 | 48.80616 | 2.69873 | 19088 ft | 416 kts | 268° |
| 2026-05-05 16:57 | 48.80547 | 2.65503 | 19625 ft | 421 kts | 268° |
| 2026-05-05 16:57 | 48.80475 | 2.61049 | 20170 ft | 427 kts | 268° |
| 2026-05-05 16:57 | 48.80401 | 2.56545 | 20719 ft | 432 kts | 268° |
| 2026-05-05 16:57 | 48.80324 | 2.52002 | 21260 ft | 437 kts | 268° |
| 2026-05-05 16:58 | 48.80245 | 2.47387 | 21819 ft | 441 kts | 268° |
| 2026-05-05 16:58 | 48.80163 | 2.42689 | 22346 ft | 445 kts | 268° |
| 2026-05-05 16:58 | 48.80084 | 2.38024 | 22879 ft | 449 kts | 269° |
| 2026-05-05 16:58 | 48.80084 | 2.33250 | 23374 ft | 454 kts | 270° |
| 2026-05-05 16:59 | 48.80101 | 2.28458 | 23868 ft | 458 kts | 270° |
| 2026-05-05 16:59 | 48.80114 | 2.23597 | 24388 ft | 462 kts | 270° |
| 2026-05-05 16:59 | 48.80123 | 2.18751 | 24916 ft | 465 kts | 270° |
| 2026-05-05 16:59 | 48.80130 | 2.13836 | 25388 ft | 468 kts | 270° |
| 2026-05-05 17:00 | 48.80132 | 2.08901 | 25828 ft | 473 kts | 270° |
| 2026-05-05 17:00 | 48.80132 | 2.03947 | 26284 ft | 476 kts | 270° |
| 2026-05-05 17:00 | 48.80130 | 1.98940 | 26751 ft | 479 kts | 270° |
| 2026-05-05 17:00 | 48.80124 | 1.93870 | 27176 ft | 483 kts | 270° |
| 2026-05-05 17:01 | 48.80117 | 1.88787 | 27614 ft | 487 kts | 270° |
| 2026-05-05 17:01 | 48.80106 | 1.83624 | 28025 ft | 491 kts | 270° |
| 2026-05-05 17:01 | 48.80093 | 1.78492 | 28461 ft | 494 kts | 270° |
| 2026-05-05 17:01 | 48.80078 | 1.73300 | 28884 ft | 497 kts | 270° |
| 2026-05-05 17:02 | 48.80059 | 1.68024 | 29386 ft | 498 kts | 270° |
| 2026-05-05 17:02 | 48.80039 | 1.62832 | 30006 ft | 497 kts | 270° |
| 2026-05-05 17:02 | 48.80016 | 1.57578 | 30697 ft | 493 kts | 270° |
| 2026-05-05 17:02 | 48.79991 | 1.52416 | 31255 ft | 491 kts | 270° |
| 2026-05-05 17:03 | 48.79963 | 1.47151 | 31717 ft | 491 kts | 270° |
| 2026-05-05 17:03 | 48.79933 | 1.41929 | 31822 ft | 495 kts | 270° |
| 2026-05-05 17:03 | 48.79866 | 1.31391 | 31825 ft | 491 kts | 269° |
| 2026-05-05 17:04 | 48.79789 | 1.21024 | 31834 ft | 492 kts | 269° |
| 2026-05-05 17:04 | 48.79704 | 1.10606 | 31830 ft | 491 kts | 269° |
| 2026-05-05 17:05 | 48.79610 | 1.00288 | 31835 ft | 491 kts | 269° |
| 2026-05-05 17:05 | 48.79506 | 0.89937 | 31837 ft | 491 kts | 269° |
| 2026-05-05 17:06 | 48.79393 | 0.79626 | 31839 ft | 491 kts | 269° |
| 2026-05-05 17:06 | 48.79271 | 0.69271 | 31847 ft | 491 kts | 269° |
| 2026-05-05 17:07 | 48.79139 | 0.58930 | 31853 ft | 490 kts | 269° |
| 2026-05-05 17:07 | 48.79297 | 0.48688 | 31858 ft | 490 kts | 276° |
| 2026-05-05 17:08 | 48.79962 | 0.38402 | 31851 ft | 491 kts | 276° |
| 2026-05-05 17:08 | 48.80619 | 0.28108 | 31853 ft | 490 kts | 276° |
| 2026-05-05 17:09 | 48.81263 | 0.17759 | 31856 ft | 490 kts | 276° |
| 2026-05-05 17:09 | 48.81895 | 0.07398 | 31867 ft | 492 kts | 275° |
| 2026-05-05 17:10 | 48.82511 | -0.02871 | 31878 ft | 490 kts | 275° |
| 2026-05-05 17:10 | 48.83116 | -0.13136 | 31877 ft | 490 kts | 276° |
| 2026-05-05 17:11 | 48.83710 | -0.23364 | 31882 ft | 489 kts | 276° |
| 2026-05-05 17:11 | 48.84279 | -0.33671 | 31885 ft | 490 kts | 275° |
| 2026-05-05 17:12 | 48.84824 | -0.43913 | 31881 ft | 490 kts | 275° |
| 2026-05-05 17:12 | 48.85362 | -0.54173 | 31884 ft | 490 kts | 275° |
| 2026-05-05 17:13 | 48.85892 | -0.64462 | 31881 ft | 489 kts | 275° |
| 2026-05-05 17:13 | 48.86411 | -0.74700 | 31880 ft | 488 kts | 275° |
| 2026-05-05 17:14 | 48.86921 | -0.84951 | 31887 ft | 489 kts | 275° |
| 2026-05-05 17:14 | 48.87426 | -0.95276 | 31894 ft | 489 kts | 275° |
| 2026-05-05 17:15 | 48.87921 | -1.05581 | 31906 ft | 488 kts | 275° |
| 2026-05-05 17:15 | 48.88406 | -1.15881 | 31904 ft | 491 kts | 275° |
| 2026-05-05 17:16 | 48.88882 | -1.26188 | 31903 ft | 488 kts | 274° |
| 2026-05-05 17:16 | 48.89349 | -1.36480 | 31897 ft | 488 kts | 274° |
| 2026-05-05 17:17 | 48.89802 | -1.46693 | 31908 ft | 489 kts | 274° |
| 2026-05-05 17:17 | 48.90252 | -1.57001 | 31921 ft | 488 kts | 274° |
| 2026-05-05 17:18 | 48.90694 | -1.67297 | 31925 ft | 489 kts | 273° |
| 2026-05-05 17:18 | 48.90543 | -1.77580 | 31919 ft | 488 kts | 259° |
| 2026-05-05 17:19 | 48.89027 | -1.87600 | 31928 ft | 488 kts | 255° |
| 2026-05-05 17:19 | 48.87416 | -1.97530 | 31929 ft | 488 kts | 255° |
| 2026-05-05 17:20 | 48.85773 | -2.07599 | 31930 ft | 487 kts | 255° |
| 2026-05-05 17:20 | 48.84140 | -2.17548 | 31933 ft | 488 kts | 255° |
| 2026-05-05 17:21 | 48.82502 | -2.27467 | 31934 ft | 487 kts | 255° |
| 2026-05-05 17:22 | 48.80013 | -2.42434 | 31934 ft | 487 kts | 255° |
| 2026-05-05 17:22 | 48.78351 | -2.52350 | 31938 ft | 490 kts | 255° |
| 2026-05-05 17:23 | 48.76684 | -2.62250 | 31503 ft | 479 kts | 255° |
| 2026-05-05 17:23 | 48.75858 | -2.67135 | 31003 ft | 479 kts | 255° |
| 2026-05-05 17:23 | 48.75026 | -2.72037 | 30943 ft | 487 kts | 254° |
| 2026-05-05 17:24 | 48.73310 | -2.82115 | 30943 ft | 495 kts | 255° |
| 2026-05-05 17:24 | 48.71596 | -2.92122 | 30943 ft | 493 kts | 255° |
| 2026-05-05 17:25 | 48.70115 | -3.02193 | 30949 ft | 494 kts | 260° |
| 2026-05-05 17:25 | 48.68961 | -3.12452 | 30945 ft | 494 kts | 259° |
| 2026-05-05 17:26 | 48.67777 | -3.22682 | 30951 ft | 495 kts | 259° |
| 2026-05-05 17:26 | 48.66569 | -3.32894 | 30956 ft | 494 kts | 259° |
| 2026-05-05 17:27 | 48.65348 | -3.43056 | 30964 ft | 494 kts | 259° |
| 2026-05-05 17:27 | 48.64114 | -3.53211 | 30964 ft | 493 kts | 259° |
| 2026-05-05 17:28 | 48.62865 | -3.63393 | 30968 ft | 494 kts | 258° |
| 2026-05-05 17:28 | 48.61613 | -3.73501 | 30962 ft | 493 kts | 258° |
| 2026-05-05 17:29 | 48.60346 | -3.83661 | 30965 ft | 491 kts | 258° |
| 2026-05-05 17:29 | 48.59081 | -3.93715 | 30966 ft | 492 kts | 257° |
| 2026-05-05 17:30 | 48.57800 | -4.03827 | 30972 ft | 491 kts | 257° |
| 2026-05-05 17:30 | 48.56515 | -4.13892 | 30980 ft | 490 kts | 257° |
| 2026-05-05 17:31 | 48.55220 | -4.23962 | 30983 ft | 491 kts | 257° |
| 2026-05-05 17:31 | 48.53913 | -4.34051 | 30987 ft | 492 kts | 257° |
| 2026-05-05 17:32 | 48.52593 | -4.44164 | 30989 ft | 491 kts | 257° |
| 2026-05-05 17:32 | 48.51271 | -4.54219 | 30989 ft | 492 kts | 257° |
| 2026-05-05 17:33 | 48.49936 | -4.64308 | 30991 ft | 492 kts | 257° |
| 2026-05-05 17:33 | 48.48587 | -4.74428 | 30986 ft | 492 kts | 256° |
| 2026-05-05 17:34 | 48.47237 | -4.84476 | 30984 ft | 492 kts | 256° |
| 2026-05-05 17:34 | 48.45880 | -4.94511 | 30995 ft | 492 kts | 256° |
| 2026-05-05 17:35 | 48.44513 | -5.04558 | 30988 ft | 492 kts | 256° |
| 2026-05-05 17:35 | 48.43127 | -5.14662 | 30989 ft | 493 kts | 256° |
| 2026-05-05 17:36 | 48.41744 | -5.24683 | 30991 ft | 494 kts | 256° |
| 2026-05-05 17:36 | 48.40348 | -5.34729 | 30994 ft | 491 kts | 256° |
| 2026-05-05 17:37 | 48.38941 | -5.44781 | 30996 ft | 492 kts | 256° |
| 2026-05-05 17:37 | 48.37524 | -5.54837 | 30994 ft | 492 kts | 256° |
| 2026-05-05 17:38 | 48.36107 | -5.64830 | 30992 ft | 492 kts | 256° |
| 2026-05-05 17:38 | 48.34666 | -5.74919 | 30992 ft | 492 kts | 255° |
| 2026-05-05 17:39 | 48.33224 | -5.84952 | 30991 ft | 492 kts | 255° |
| 2026-05-05 17:39 | 48.31782 | -5.94915 | 30994 ft | 492 kts | 255° |
| 2026-05-05 17:40 | 48.30333 | -6.04872 | 30998 ft | 490 kts | 255° |
| 2026-05-05 17:40 | 48.28869 | -6.14860 | 31002 ft | 490 kts | 256° |
| 2026-05-05 17:41 | 48.27406 | -6.24771 | 31003 ft | 489 kts | 256° |
| 2026-05-05 17:41 | 48.25932 | -6.34698 | 31009 ft | 488 kts | 256° |
| 2026-05-05 17:42 | 48.24459 | -6.44557 | 31010 ft | 487 kts | 256° |
| 2026-05-05 17:42 | 48.22968 | -6.54474 | 31013 ft | 485 kts | 256° |
| 2026-05-05 17:43 | 48.21477 | -6.64327 | 31013 ft | 486 kts | 256° |
| 2026-05-05 17:43 | 48.19978 | -6.74171 | 31012 ft | 484 kts | 256° |
| 2026-05-05 17:44 | 48.18481 | -6.83948 | 31017 ft | 484 kts | 256° |
| 2026-05-05 17:44 | 48.16970 | -6.93750 | 31021 ft | 482 kts | 256° |
| 2026-05-05 17:45 | 48.15472 | -7.03413 | 31019 ft | 482 kts | 256° |
| 2026-05-05 17:45 | 48.13948 | -7.13177 | 31021 ft | 483 kts | 257° |
| 2026-05-05 17:46 | 48.12413 | -7.22959 | 31026 ft | 483 kts | 257° |
| 2026-05-05 17:46 | 48.10876 | -7.32692 | 31032 ft | 482 kts | 257° |
| 2026-05-05 17:47 | 48.09335 | -7.42399 | 31051 ft | 481 kts | 257° |
| 2026-05-05 17:47 | 48.07787 | -7.52090 | 31048 ft | 480 kts | 257° |
| 2026-05-05 17:48 | 48.06235 | -7.61747 | 31040 ft | 478 kts | 257° |
| 2026-05-05 17:48 | 48.04681 | -7.71365 | 31059 ft | 476 kts | 257° |
| 2026-05-05 17:49 | 48.03124 | -7.80938 | 31055 ft | 474 kts | 257° |
| 2026-05-05 17:49 | 48.01564 | -7.90485 | 31052 ft | 474 kts | 257° |
| 2026-05-05 17:50 | 48.00092 | -8.00026 | 31043 ft | 473 kts | 263° |
| 2026-05-05 17:50 | 47.99890 | -8.09765 | 31243 ft | 478 kts | 272° |
| 2026-05-05 17:50 | 47.99936 | -8.14689 | 31752 ft | 475 kts | 272° |
| 2026-05-05 17:51 | 47.99972 | -8.19604 | 32007 ft | 477 kts | 272° |
| 2026-05-05 17:51 | 48.00018 | -8.29426 | 32056 ft | 473 kts | 272° |
| 2026-05-05 17:52 | 48.00040 | -8.39229 | 32061 ft | 473 kts | 272° |
| 2026-05-05 17:52 | 48.00044 | -8.49050 | 32053 ft | 473 kts | 273° |
| 2026-05-05 17:53 | 48.00035 | -8.58806 | 32064 ft | 473 kts | 273° |
| 2026-05-05 17:53 | 48.00016 | -8.68599 | 32076 ft | 474 kts | 272° |
| 2026-05-05 17:54 | 47.99540 | -8.78381 | 32071 ft | 479 kts | 262° |
| 2026-05-05 17:54 | 47.98279 | -8.88157 | 32066 ft | 482 kts | 262° |
| 2026-05-05 17:55 | 47.96989 | -8.97942 | 32078 ft | 483 kts | 262° |
| 2026-05-05 17:55 | 47.95683 | -9.07783 | 32084 ft | 482 kts | 262° |
| 2026-05-05 17:56 | 47.94390 | -9.17453 | 32079 ft | 481 kts | 262° |
| 2026-05-05 17:56 | 47.93079 | -9.27197 | 32084 ft | 480 kts | 262° |
| 2026-05-05 17:57 | 47.91755 | -9.36968 | 32082 ft | 481 kts | 262° |
| 2026-05-05 17:57 | 47.90431 | -9.46683 | 32091 ft | 481 kts | 261° |
| 2026-05-05 17:58 | 47.89099 | -9.56379 | 32086 ft | 479 kts | 262° |
| 2026-05-05 17:58 | 47.87756 | -9.66095 | 32087 ft | 478 kts | 261° |
| 2026-05-05 17:59 | 47.86423 | -9.75681 | 32088 ft | 478 kts | 261° |
| 2026-05-05 17:59 | 47.85068 | -9.85360 | 32090 ft | 477 kts | 260° |
| 2026-05-05 18:00 | 47.83700 | -9.95062 | 32092 ft | 478 kts | 261° |
| 2026-05-05 18:00 | 47.82328 | -10.04732 | 32093 ft | 477 kts | 260° |
| 2026-05-05 18:01 | 47.80937 | -10.14474 | 32097 ft | 477 kts | 261° |
| 2026-05-05 18:01 | 47.79561 | -10.24049 | 32099 ft | 477 kts | 261° |
| 2026-05-05 18:02 | 47.78170 | -10.33667 | 32099 ft | 476 kts | 261° |
| 2026-05-05 18:02 | 47.76775 | -10.43254 | 32104 ft | 475 kts | 261° |
| 2026-05-05 18:03 | 47.75378 | -10.52793 | 32108 ft | 474 kts | 261° |
| 2026-05-05 18:03 | 47.73963 | -10.62399 | 32119 ft | 473 kts | 261° |
| 2026-05-05 18:04 | 47.72554 | -10.71903 | 32124 ft | 473 kts | 260° |
| 2026-05-05 18:04 | 47.71132 | -10.81434 | 32126 ft | 473 kts | 260° |
| 2026-05-05 18:05 | 47.69708 | -10.90924 | 32132 ft | 472 kts | 260° |
| 2026-05-05 18:05 | 47.68286 | -11.00342 | 32133 ft | 472 kts | 260° |
| 2026-05-05 18:06 | 47.66846 | -11.09822 | 32132 ft | 471 kts | 260° |
| 2026-05-05 18:06 | 47.65402 | -11.19276 | 32138 ft | 471 kts | 260° |
| 2026-05-05 18:07 | 47.63953 | -11.28699 | 32133 ft | 471 kts | 260° |
| 2026-05-05 18:07 | 47.62497 | -11.38117 | 32129 ft | 471 kts | 260° |
| 2026-05-05 18:08 | 47.61034 | -11.47528 | 32122 ft | 471 kts | 260° |
| 2026-05-05 18:08 | 47.59648 | -11.56390 | 32126 ft | 471 kts | 260° |
| 2026-05-05 18:09 | 47.58597 | -11.63082 | 32127 ft | 471 kts | 260° |
| 2026-05-05 18:09 | 47.57104 | -11.72533 | 32126 ft | 473 kts | 259° |
| 2026-05-05 18:10 | 47.55612 | -11.81931 | 32133 ft | 472 kts | 259° |
| 2026-05-05 18:10 | 47.54105 | -11.91365 | 32130 ft | 472 kts | 259° |
| 2026-05-05 18:11 | 47.52594 | -12.00767 | 32134 ft | 471 kts | 259° |
| 2026-05-05 18:11 | 47.51074 | -12.10177 | 32136 ft | 471 kts | 259° |
| 2026-05-05 18:12 | 47.49551 | -12.19549 | 32142 ft | 470 kts | 259° |
| 2026-05-05 18:12 | 47.48030 | -12.28861 | 32141 ft | 469 kts | 259° |
| 2026-05-05 18:13 | 47.46500 | -12.38178 | 32143 ft | 469 kts | 259° |
| 2026-05-05 18:13 | 47.44950 | -12.47563 | 32147 ft | 470 kts | 259° |
| 2026-05-05 18:14 | 47.43397 | -12.56908 | 32155 ft | 470 kts | 259° |
| 2026-05-05 18:14 | 47.41844 | -12.66211 | 32161 ft | 469 kts | 258° |
| 2026-05-05 18:15 | 47.40282 | -12.75509 | 32168 ft | 470 kts | 258° |
| 2026-05-05 18:15 | 47.38708 | -12.84833 | 32170 ft | 469 kts | 258° |
| 2026-05-05 18:16 | 47.37134 | -12.94112 | 32179 ft | 467 kts | 258° |
| 2026-05-05 18:16 | 47.35545 | -13.03424 | 32175 ft | 467 kts | 258° |
| 2026-05-05 18:17 | 47.33961 | -13.12656 | 32175 ft | 467 kts | 258° |
| 2026-05-05 18:17 | 47.32362 | -13.21928 | 32176 ft | 467 kts | 258° |
| 2026-05-05 18:18 | 47.30759 | -13.31174 | 32173 ft | 468 kts | 258° |
| 2026-05-05 18:18 | 47.29151 | -13.40401 | 32177 ft | 467 kts | 258° |
| 2026-05-05 18:19 | 47.27538 | -13.49609 | 32173 ft | 466 kts | 258° |
| 2026-05-05 18:19 | 47.25919 | -13.58806 | 32181 ft | 466 kts | 258° |
| 2026-05-05 18:20 | 47.24291 | -13.68000 | 32176 ft | 465 kts | 257° |
| 2026-05-05 18:20 | 47.22657 | -13.77185 | 32175 ft | 465 kts | 257° |
| 2026-05-05 18:21 | 47.21019 | -13.86347 | 32180 ft | 465 kts | 257° |
| 2026-05-05 18:21 | 47.19369 | -13.95528 | 32181 ft | 465 kts | 257° |
| 2026-05-05 18:22 | 47.17715 | -14.04683 | 32179 ft | 466 kts | 257° |
| 2026-05-05 18:22 | 47.16052 | -14.13842 | 32180 ft | 465 kts | 257° |
| 2026-05-05 18:23 | 47.14393 | -14.22934 | 32186 ft | 464 kts | 257° |
| 2026-05-05 18:23 | 47.12711 | -14.32108 | 32186 ft | 464 kts | 257° |
| 2026-05-05 18:24 | 47.11041 | -14.41170 | 32190 ft | 464 kts | 257° |
| 2026-05-05 18:24 | 47.09347 | -14.50319 | 32190 ft | 464 kts | 257° |
| 2026-05-05 18:25 | 47.07659 | -14.59389 | 32190 ft | 464 kts | 257° |
| 2026-05-05 18:25 | 47.05954 | -14.68505 | 32197 ft | 464 kts | 257° |
| 2026-05-05 18:26 | 47.04250 | -14.77577 | 32202 ft | 464 kts | 257° |
| 2026-05-05 18:26 | 47.02538 | -14.86641 | 32199 ft | 464 kts | 256° |
| 2026-05-05 18:27 | 47.00807 | -14.95767 | 32199 ft | 465 kts | 256° |
| 2026-05-05 18:27 | 46.99126 | -15.04831 | 32200 ft | 463 kts | 258° |
| 2026-05-05 18:28 | 46.96741 | -15.18480 | 32202 ft | 462 kts | 258° |
| 2026-05-05 18:28 | 46.95141 | -15.27549 | 32206 ft | 462 kts | 258° |
| 2026-05-05 18:29 | 46.93529 | -15.36622 | 32208 ft | 461 kts | 257° |
| 2026-05-05 18:29 | 46.91914 | -15.45658 | 32210 ft | 461 kts | 257° |
| 2026-05-05 18:30 | 46.90289 | -15.54704 | 32210 ft | 461 kts | 257° |
| 2026-05-05 18:30 | 46.88668 | -15.63677 | 32208 ft | 461 kts | 257° |
| 2026-05-05 18:31 | 46.87025 | -15.72726 | 32214 ft | 461 kts | 257° |
| 2026-05-05 18:31 | 46.85386 | -15.81708 | 32217 ft | 460 kts | 256° |
| 2026-05-05 18:32 | 46.83733 | -15.90728 | 32214 ft | 460 kts | 257° |
| 2026-05-05 18:32 | 46.82077 | -15.99716 | 32217 ft | 459 kts | 257° |
| 2026-05-05 18:33 | 46.80416 | -16.08682 | 32220 ft | 459 kts | 257° |
| 2026-05-05 18:33 | 46.78752 | -16.17628 | 32226 ft | 458 kts | 256° |
| 2026-05-05 18:34 | 46.77081 | -16.26568 | 32230 ft | 458 kts | 256° |
| 2026-05-05 18:34 | 46.75406 | -16.35488 | 32230 ft | 459 kts | 256° |
| 2026-05-05 18:35 | 46.73722 | -16.44410 | 32238 ft | 459 kts | 256° |
| 2026-05-05 18:35 | 46.72026 | -16.53351 | 32248 ft | 458 kts | 256° |
| 2026-05-05 18:36 | 46.70330 | -16.62253 | 32251 ft | 458 kts | 256° |
| 2026-05-05 18:36 | 46.68626 | -16.71155 | 32253 ft | 458 kts | 256° |
| 2026-05-05 18:37 | 46.66909 | -16.80083 | 32255 ft | 458 kts | 256° |
| 2026-05-05 18:37 | 46.65190 | -16.88978 | 32257 ft | 457 kts | 256° |
| 2026-05-05 18:38 | 46.63473 | -16.97830 | 32258 ft | 458 kts | 255° |
| 2026-05-05 18:38 | 46.61732 | -17.06754 | 32257 ft | 458 kts | 256° |
| 2026-05-05 18:39 | 46.59998 | -17.15607 | 32262 ft | 458 kts | 256° |
| 2026-05-05 18:39 | 46.58253 | -17.24473 | 32265 ft | 457 kts | 256° |
| 2026-05-05 18:40 | 46.56508 | -17.33301 | 32270 ft | 457 kts | 256° |
| 2026-05-05 18:40 | 46.54751 | -17.42147 | 32264 ft | 457 kts | 256° |
| 2026-05-05 18:41 | 46.52981 | -17.51019 | 32262 ft | 457 kts | 256° |
| 2026-05-05 18:41 | 46.51208 | -17.59864 | 32264 ft | 457 kts | 256° |
| 2026-05-05 18:42 | 46.49423 | -17.68732 | 32265 ft | 458 kts | 255° |
| 2026-05-05 18:42 | 46.47628 | -17.77607 | 32259 ft | 457 kts | 255° |
| 2026-05-05 18:43 | 46.45842 | -17.86399 | 32254 ft | 458 kts | 255° |
| 2026-05-05 18:43 | 46.44040 | -17.95231 | 32252 ft | 457 kts | 255° |
| 2026-05-05 18:44 | 46.42233 | -18.04052 | 32261 ft | 458 kts | 256° |
| 2026-05-05 18:44 | 46.40425 | -18.12832 | 32260 ft | 456 kts | 256° |
| 2026-05-05 18:45 | 46.38604 | -18.21641 | 32260 ft | 457 kts | 256° |
| 2026-05-05 18:45 | 46.36776 | -18.30439 | 32276 ft | 456 kts | 256° |
| 2026-05-05 18:46 | 46.34943 | -18.39234 | 32268 ft | 457 kts | 256° |
| 2026-05-05 18:46 | 46.33104 | -18.48011 | 32264 ft | 456 kts | 257° |
| 2026-05-05 18:47 | 46.31269 | -18.56731 | 32254 ft | 456 kts | 257° |
| 2026-05-05 18:47 | 46.29421 | -18.65483 | 32278 ft | 456 kts | 256° |
| 2026-05-05 18:48 | 46.27563 | -18.74236 | 32287 ft | 455 kts | 257° |
| 2026-05-05 18:48 | 46.25712 | -18.82925 | 32298 ft | 457 kts | 257° |
| 2026-05-05 18:49 | 46.23848 | -18.91636 | 32296 ft | 455 kts | 257° |
| 2026-05-05 18:49 | 46.21975 | -19.00355 | 32280 ft | 455 kts | 257° |
| 2026-05-05 18:50 | 46.20103 | -19.09028 | 32292 ft | 454 kts | 257° |
| 2026-05-05 18:50 | 46.18218 | -19.17728 | 32293 ft | 454 kts | 258° |
| 2026-05-05 18:51 | 46.16340 | -19.26361 | 32306 ft | 453 kts | 258° |
| 2026-05-05 18:51 | 46.14451 | -19.35002 | 32293 ft | 450 kts | 258° |
| 2026-05-05 18:52 | 46.12547 | -19.43685 | 32308 ft | 454 kts | 258° |
| 2026-05-05 18:52 | 46.10645 | -19.52315 | 32299 ft | 452 kts | 259° |
| 2026-05-05 18:53 | 46.08744 | -19.60908 | 32294 ft | 450 kts | 259° |
| 2026-05-05 18:53 | 46.06841 | -19.69477 | 32302 ft | 453 kts | 259° |
| 2026-05-05 18:54 | 46.04921 | -19.78084 | 32314 ft | 451 kts | 259° |
| 2026-05-05 18:54 | 46.03001 | -19.86664 | 32303 ft | 452 kts | 259° |
| 2026-05-05 18:55 | 46.01060 | -19.95283 | 32302 ft | 451 kts | 258° |
| 2026-05-05 18:55 | 45.98120 | -20.03348 | 32322 ft | 469 kts | 243° |
| 2026-05-05 18:56 | 45.94365 | -20.11012 | 32309 ft | 468 kts | 243° |
| 2026-05-05 18:56 | 45.90545 | -20.18668 | 32313 ft | 469 kts | 243° |
| 2026-05-05 18:57 | 45.86766 | -20.26177 | 32295 ft | 468 kts | 243° |
| 2026-05-05 18:57 | 45.82917 | -20.33788 | 32303 ft | 471 kts | 243° |
| 2026-05-05 18:58 | 45.79075 | -20.41349 | 32310 ft | 469 kts | 243° |
| 2026-05-05 18:58 | 45.75231 | -20.48891 | 32314 ft | 470 kts | 243° |
| 2026-05-05 18:59 | 45.71396 | -20.56391 | 32313 ft | 471 kts | 243° |
| 2026-05-05 18:59 | 45.67525 | -20.63938 | 32311 ft | 469 kts | 243° |
| 2026-05-05 19:00 | 45.63668 | -20.71439 | 32319 ft | 470 kts | 242° |
| 2026-05-05 19:00 | 45.59824 | -20.78894 | 32317 ft | 471 kts | 242° |
| 2026-05-05 19:01 | 45.55944 | -20.86399 | 32318 ft | 471 kts | 242° |
| 2026-05-05 19:01 | 45.52060 | -20.93890 | 32320 ft | 471 kts | 242° |
| 2026-05-05 19:02 | 45.48180 | -21.01352 | 32322 ft | 470 kts | 242° |
| 2026-05-05 19:02 | 45.44292 | -21.08815 | 32323 ft | 471 kts | 242° |
| 2026-05-05 19:03 | 45.40408 | -21.16246 | 32324 ft | 470 kts | 242° |
| 2026-05-05 19:03 | 45.36506 | -21.23696 | 32324 ft | 470 kts | 242° |
| 2026-05-05 19:04 | 45.32625 | -21.31086 | 32324 ft | 471 kts | 242° |
| 2026-05-05 19:04 | 45.28711 | -21.38514 | 32322 ft | 467 kts | 242° |
| 2026-05-05 19:05 | 45.24812 | -21.45902 | 32323 ft | 470 kts | 242° |
| 2026-05-05 19:05 | 45.20890 | -21.53309 | 32322 ft | 469 kts | 242° |
| 2026-05-05 19:06 | 45.16998 | -21.60642 | 32322 ft | 468 kts | 242° |
| 2026-05-05 19:06 | 45.13067 | -21.68030 | 32332 ft | 471 kts | 241° |
| 2026-05-05 19:07 | 45.09155 | -21.75362 | 32331 ft | 469 kts | 241° |
| 2026-05-05 19:07 | 45.05202 | -21.82753 | 32332 ft | 470 kts | 241° |
| 2026-05-05 19:08 | 45.01265 | -21.90092 | 32339 ft | 468 kts | 241° |
| 2026-05-05 19:08 | 44.97292 | -21.97485 | 32348 ft | 471 kts | 241° |
| 2026-05-05 19:09 | 44.93358 | -22.04783 | 32352 ft | 471 kts | 241° |
| 2026-05-05 19:09 | 44.89384 | -22.12133 | 32345 ft | 469 kts | 241° |
| 2026-05-05 19:10 | 44.85436 | -22.19422 | 32335 ft | 470 kts | 241° |
| 2026-05-05 19:10 | 44.81458 | -22.26748 | 32336 ft | 472 kts | 241° |
| 2026-05-05 19:11 | 44.77474 | -22.34062 | 32336 ft | 471 kts | 241° |
| 2026-05-05 19:11 | 44.73516 | -22.41311 | 32336 ft | 470 kts | 241° |
| 2026-05-05 19:12 | 44.69532 | -22.48590 | 32335 ft | 471 kts | 241° |
| 2026-05-05 19:12 | 44.65545 | -22.55857 | 32335 ft | 471 kts | 241° |
| 2026-05-05 19:13 | 44.61515 | -22.63183 | 32337 ft | 472 kts | 241° |
| 2026-05-05 19:13 | 44.57523 | -22.70421 | 32345 ft | 474 kts | 240° |
| 2026-05-05 19:14 | 44.53523 | -22.77653 | 32345 ft | 469 kts | 240° |
| 2026-05-05 19:14 | 44.49486 | -22.84941 | 32343 ft | 475 kts | 240° |
| 2026-05-05 19:15 | 44.45461 | -22.92179 | 32342 ft | 472 kts | 241° |
| 2026-05-05 19:15 | 44.41446 | -22.99385 | 32339 ft | 470 kts | 241° |
| 2026-05-05 19:16 | 44.37385 | -23.06659 | 32351 ft | 474 kts | 241° |
| 2026-05-05 19:16 | 44.33364 | -23.13837 | 32341 ft | 469 kts | 241° |
| 2026-05-05 19:17 | 44.29337 | -23.21016 | 32349 ft | 474 kts | 241° |
| 2026-05-05 19:17 | 44.25293 | -23.28201 | 32347 ft | 472 kts | 241° |
| 2026-05-05 19:18 | 44.21226 | -23.35408 | 32350 ft | 470 kts | 241° |
| 2026-05-05 19:18 | 44.17199 | -23.42532 | 32345 ft | 472 kts | 241° |
| 2026-05-05 19:19 | 44.13153 | -23.49667 | 32358 ft | 470 kts | 241° |
| 2026-05-05 19:19 | 44.09096 | -23.56807 | 32365 ft | 471 kts | 241° |
| 2026-05-05 19:20 | 44.05024 | -23.63956 | 32363 ft | 471 kts | 242° |
| 2026-05-05 19:20 | 44.00989 | -23.71020 | 32373 ft | 472 kts | 241° |
| 2026-05-05 19:21 | 43.96912 | -23.78139 | 32374 ft | 469 kts | 240° |
| 2026-05-05 19:21 | 43.92853 | -23.85213 | 32371 ft | 471 kts | 241° |
| 2026-05-05 19:22 | 43.88750 | -23.92350 | 32354 ft | 476 kts | 240° |
| 2026-05-05 19:22 | 43.84647 | -23.99461 | 32358 ft | 476 kts | 241° |
| 2026-05-05 19:23 | 43.80535 | -24.06571 | 32356 ft | 475 kts | 241° |
| 2026-05-05 19:23 | 43.76414 | -24.13682 | 32355 ft | 473 kts | 241° |
| 2026-05-05 19:24 | 43.72313 | -24.20740 | 32357 ft | 473 kts | 241° |
| 2026-05-05 19:24 | 43.68166 | -24.27862 | 32359 ft | 474 kts | 241° |
| 2026-05-05 19:25 | 43.64029 | -24.34949 | 32362 ft | 476 kts | 241° |
| 2026-05-05 19:25 | 43.59909 | -24.41987 | 32361 ft | 476 kts | 241° |
| 2026-05-05 19:26 | 43.55746 | -24.49081 | 32358 ft | 473 kts | 241° |
| 2026-05-05 19:26 | 43.51609 | -24.56118 | 32368 ft | 476 kts | 241° |
| 2026-05-05 19:27 | 43.47454 | -24.63162 | 32361 ft | 473 kts | 241° |
| 2026-05-05 19:27 | 43.43289 | -24.70215 | 32374 ft | 477 kts | 241° |
| 2026-05-05 19:28 | 43.39125 | -24.77242 | 32383 ft | 476 kts | 241° |
| 2026-05-05 19:28 | 43.34916 | -24.84333 | 32382 ft | 479 kts | 240° |
| 2026-05-05 19:29 | 43.30721 | -24.91375 | 32389 ft | 475 kts | 240° |
| 2026-05-05 19:29 | 43.26546 | -24.98378 | 32392 ft | 482 kts | 240° |
| 2026-05-05 19:30 | 43.22331 | -25.05421 | 32388 ft | 478 kts | 240° |
| 2026-05-05 19:30 | 43.18109 | -25.12463 | 32386 ft | 479 kts | 240° |
| 2026-05-05 19:31 | 43.13913 | -25.19444 | 32388 ft | 477 kts | 240° |
| 2026-05-05 19:31 | 43.09691 | -25.26450 | 32388 ft | 477 kts | 241° |
| 2026-05-05 19:32 | 43.05470 | -25.33444 | 32388 ft | 477 kts | 240° |
| 2026-05-05 19:32 | 43.01232 | -25.40444 | 32390 ft | 477 kts | 240° |
| 2026-05-05 19:33 | 42.97023 | -25.47377 | 32389 ft | 474 kts | 240° |
| 2026-05-05 19:33 | 42.92793 | -25.54336 | 32385 ft | 477 kts | 240° |
| 2026-05-05 19:34 | 42.88544 | -25.61305 | 32371 ft | 476 kts | 240° |
| 2026-05-05 19:35 | 42.82206 | -25.71674 | 32384 ft | 481 kts | 239° |
| 2026-05-05 19:35 | 42.77947 | -25.78614 | 32389 ft | 476 kts | 240° |
| 2026-05-05 19:36 | 42.73701 | -25.85526 | 32396 ft | 480 kts | 239° |
| 2026-05-05 19:36 | 42.69414 | -25.92478 | 32398 ft | 476 kts | 239° |
| 2026-05-05 19:37 | 42.65157 | -25.99376 | 32403 ft | 480 kts | 239° |
| 2026-05-05 19:37 | 42.60884 | -26.06276 | 32399 ft | 477 kts | 239° |
| 2026-05-05 19:38 | 42.56598 | -26.13184 | 32403 ft | 480 kts | 239° |
| 2026-05-05 19:38 | 42.52343 | -26.20022 | 32404 ft | 476 kts | 240° |
| 2026-05-05 19:39 | 42.48042 | -26.26929 | 32400 ft | 482 kts | 239° |
| 2026-05-05 19:39 | 42.43745 | -26.33801 | 32399 ft | 478 kts | 239° |
| 2026-05-05 19:40 | 42.39463 | -26.40636 | 32396 ft | 478 kts | 239° |
| 2026-05-05 19:40 | 42.35183 | -26.47457 | 32394 ft | 478 kts | 239° |
| 2026-05-05 19:41 | 42.30869 | -26.54313 | 32390 ft | 480 kts | 239° |
| 2026-05-05 19:41 | 42.26541 | -26.61176 | 32403 ft | 480 kts | 239° |
| 2026-05-05 19:42 | 42.22242 | -26.67975 | 32415 ft | 479 kts | 238° |
| 2026-05-05 19:42 | 42.17906 | -26.74821 | 32408 ft | 481 kts | 238° |
| 2026-05-05 19:43 | 42.13570 | -26.81648 | 32405 ft | 482 kts | 238° |
| 2026-05-05 19:43 | 42.09236 | -26.88454 | 32415 ft | 478 kts | 238° |
| 2026-05-05 19:44 | 42.04894 | -26.95261 | 32413 ft | 478 kts | 239° |
| 2026-05-05 19:44 | 42.00567 | -27.02032 | 32412 ft | 482 kts | 238° |
| 2026-05-05 19:45 | 41.96224 | -27.08803 | 32415 ft | 476 kts | 238° |
| 2026-05-05 19:45 | 41.91862 | -27.15598 | 32416 ft | 481 kts | 238° |
| 2026-05-05 19:46 | 41.87553 | -27.22288 | 32398 ft | 477 kts | 238° |
| 2026-05-05 19:46 | 41.83163 | -27.29096 | 32396 ft | 482 kts | 238° |
| 2026-05-05 19:47 | 41.78831 | -27.35790 | 32391 ft | 477 kts | 238° |
| 2026-05-05 19:47 | 41.74474 | -27.42516 | 32399 ft | 482 kts | 238° |
| 2026-05-05 19:48 | 41.70085 | -27.49268 | 32397 ft | 479 kts | 238° |
| 2026-05-05 19:48 | 41.65721 | -27.55968 | 32402 ft | 478 kts | 238° |
| 2026-05-05 19:49 | 41.61372 | -27.62637 | 32398 ft | 481 kts | 238° |
| 2026-05-05 19:49 | 41.56981 | -27.69349 | 32412 ft | 480 kts | 237° |
| 2026-05-05 19:50 | 41.52592 | -27.76044 | 32411 ft | 481 kts | 237° |
| 2026-05-05 19:50 | 41.48170 | -27.82773 | 32410 ft | 479 kts | 237° |
| 2026-05-05 19:51 | 41.43784 | -27.89437 | 32420 ft | 482 kts | 237° |
| 2026-05-05 19:51 | 41.39379 | -27.96107 | 32420 ft | 480 kts | 237° |
| 2026-05-05 19:52 | 41.34995 | -28.02737 | 32418 ft | 479 kts | 237° |
| 2026-05-05 19:52 | 41.30587 | -28.09387 | 32421 ft | 480 kts | 237° |
| 2026-05-05 19:53 | 41.26180 | -28.16020 | 32421 ft | 481 kts | 237° |
| 2026-05-05 19:53 | 41.21759 | -28.22660 | 32425 ft | 482 kts | 237° |
| 2026-05-05 19:54 | 41.17334 | -28.29291 | 32429 ft | 481 kts | 237° |
| 2026-05-05 19:54 | 41.12909 | -28.35906 | 32425 ft | 479 kts | 237° |
| 2026-05-05 19:55 | 41.08485 | -28.42507 | 32423 ft | 481 kts | 237° |
| 2026-05-05 19:55 | 41.04056 | -28.49100 | 32423 ft | 479 kts | 237° |
| 2026-05-05 19:56 | 40.99644 | -28.55654 | 32419 ft | 479 kts | 237° |
| 2026-05-05 19:56 | 40.95204 | -28.62234 | 32410 ft | 479 kts | 237° |
| 2026-05-05 19:57 | 40.90747 | -28.68828 | 32420 ft | 482 kts | 236° |
| 2026-05-05 19:57 | 40.86257 | -28.75459 | 32636 ft | 491 kts | 236° |
| 2026-05-05 19:57 | 40.83969 | -28.78826 | 33334 ft | 486 kts | 236° |
| 2026-05-05 19:58 | 40.81758 | -28.82073 | 34158 ft | 478 kts | 236° |
| 2026-05-05 19:58 | 40.79546 | -28.85326 | 34398 ft | 480 kts | 236° |
| 2026-05-05 19:58 | 40.77320 | -28.88594 | 34400 ft | 478 kts | 236° |
| 2026-05-05 19:59 | 40.72919 | -28.95044 | 34402 ft | 473 kts | 236° |
| 2026-05-05 19:59 | 40.68496 | -29.01520 | 34400 ft | 475 kts | 236° |
| 2026-05-05 20:00 | 40.64069 | -29.07982 | 34406 ft | 475 kts | 236° |
| 2026-05-05 20:00 | 40.59654 | -29.14414 | 34400 ft | 475 kts | 236° |
| 2026-05-05 20:01 | 40.55248 | -29.20819 | 34400 ft | 476 kts | 236° |
| 2026-05-05 20:01 | 40.50800 | -29.27269 | 34400 ft | 474 kts | 236° |
| 2026-05-05 20:02 | 40.46378 | -29.33673 | 34405 ft | 478 kts | 236° |
| 2026-05-05 20:02 | 40.41933 | -29.40092 | 34407 ft | 477 kts | 236° |
| 2026-05-05 20:03 | 40.37465 | -29.46532 | 34410 ft | 476 kts | 236° |
| 2026-05-05 20:03 | 40.33004 | -29.52947 | 34407 ft | 476 kts | 236° |
| 2026-05-05 20:04 | 40.28565 | -29.59318 | 34412 ft | 475 kts | 236° |
| 2026-05-05 20:04 | 40.24113 | -29.65694 | 34422 ft | 476 kts | 235° |
| 2026-05-05 20:05 | 40.19629 | -29.72103 | 34433 ft | 475 kts | 235° |
| 2026-05-05 20:05 | 40.15159 | -29.78478 | 34433 ft | 477 kts | 235° |
| 2026-05-05 20:06 | 40.10714 | -29.84804 | 34434 ft | 475 kts | 235° |
| 2026-05-05 20:06 | 40.06205 | -29.91210 | 34433 ft | 479 kts | 235° |
| 2026-05-05 20:07 | 40.01717 | -29.97568 | 34434 ft | 476 kts | 235° |
| 2026-05-05 20:07 | 39.97413 | -30.04033 | 34440 ft | 472 kts | 240° |
| 2026-05-05 20:08 | 39.93418 | -30.10824 | 34424 ft | 471 kts | 240° |
| 2026-05-05 20:08 | 39.89391 | -30.17606 | 34410 ft | 471 kts | 240° |
| 2026-05-05 20:09 | 39.85371 | -30.24322 | 34398 ft | 469 kts | 240° |
| 2026-05-05 20:09 | 39.81381 | -30.30959 | 34395 ft | 470 kts | 240° |
| 2026-05-05 20:10 | 39.77335 | -30.37664 | 34400 ft | 470 kts | 240° |
| 2026-05-05 20:10 | 39.73326 | -30.44285 | 34398 ft | 468 kts | 240° |
| 2026-05-05 20:11 | 39.69293 | -30.50931 | 34399 ft | 469 kts | 240° |
| 2026-05-05 20:11 | 39.65276 | -30.57538 | 34396 ft | 470 kts | 240° |
| 2026-05-05 20:12 | 39.61223 | -30.64186 | 34397 ft | 469 kts | 239° |
| 2026-05-05 20:12 | 39.57178 | -30.70809 | 34405 ft | 470 kts | 239° |
| 2026-05-05 20:13 | 39.53127 | -30.77424 | 34408 ft | 468 kts | 239° |
| 2026-05-05 20:13 | 39.49095 | -30.83997 | 34408 ft | 468 kts | 239° |
| 2026-05-05 20:14 | 39.45052 | -30.90572 | 34408 ft | 467 kts | 239° |
| 2026-05-05 20:14 | 39.41009 | -30.97136 | 34412 ft | 468 kts | 239° |
| 2026-05-05 20:15 | 39.36943 | -31.03723 | 34414 ft | 468 kts | 239° |
| 2026-05-05 20:15 | 39.32899 | -31.10260 | 34411 ft | 467 kts | 239° |
| 2026-05-05 20:16 | 39.28832 | -31.16822 | 34416 ft | 467 kts | 239° |
| 2026-05-05 20:16 | 39.24789 | -31.23329 | 34416 ft | 467 kts | 239° |
| 2026-05-05 20:17 | 39.20733 | -31.29846 | 34410 ft | 466 kts | 239° |
| 2026-05-05 20:17 | 39.16674 | -31.36354 | 34406 ft | 466 kts | 239° |
| 2026-05-05 20:18 | 39.12611 | -31.42855 | 34411 ft | 466 kts | 239° |
| 2026-05-05 20:18 | 39.08568 | -31.49310 | 34414 ft | 465 kts | 239° |
| 2026-05-05 20:19 | 39.04485 | -31.55818 | 34413 ft | 467 kts | 239° |
| 2026-05-05 20:19 | 39.00428 | -31.62269 | 34410 ft | 466 kts | 239° |
| 2026-05-05 20:20 | 38.96336 | -31.68764 | 34415 ft | 467 kts | 238° |
| 2026-05-05 20:20 | 38.92282 | -31.75185 | 34410 ft | 466 kts | 238° |
| 2026-05-05 20:21 | 38.88173 | -31.81681 | 34398 ft | 467 kts | 238° |
| 2026-05-05 20:21 | 38.84090 | -31.88120 | 34400 ft | 466 kts | 238° |
| 2026-05-05 20:22 | 38.79989 | -31.94579 | 34401 ft | 467 kts | 238° |
| 2026-05-05 20:22 | 38.75903 | -32.00996 | 34402 ft | 467 kts | 238° |
| 2026-05-05 20:23 | 38.71820 | -32.07399 | 34401 ft | 466 kts | 238° |
| 2026-05-05 20:23 | 38.67717 | -32.13819 | 34402 ft | 465 kts | 238° |
| 2026-05-05 20:24 | 38.63647 | -32.20174 | 34400 ft | 465 kts | 238° |
| 2026-05-05 20:24 | 38.59521 | -32.26609 | 34401 ft | 468 kts | 238° |
| 2026-05-05 20:25 | 38.55423 | -32.32982 | 34402 ft | 467 kts | 238° |
| 2026-05-05 20:25 | 38.51306 | -32.39373 | 34402 ft | 467 kts | 238° |
| 2026-05-05 20:26 | 38.47184 | -32.45759 | 34401 ft | 467 kts | 238° |
| 2026-05-05 20:26 | 38.43070 | -32.52122 | 34402 ft | 467 kts | 238° |
| 2026-05-05 20:27 | 38.38929 | -32.58512 | 34400 ft | 468 kts | 238° |
| 2026-05-05 20:27 | 38.34801 | -32.64868 | 34399 ft | 466 kts | 238° |
| 2026-05-05 20:28 | 38.30650 | -32.71251 | 34407 ft | 468 kts | 237° |
| 2026-05-05 20:28 | 38.26508 | -32.77604 | 34408 ft | 469 kts | 237° |
| 2026-05-05 20:29 | 38.22334 | -32.83995 | 34412 ft | 468 kts | 237° |
| 2026-05-05 20:29 | 38.18152 | -32.90386 | 34408 ft | 469 kts | 237° |
| 2026-05-05 20:30 | 38.14006 | -32.96708 | 34411 ft | 470 kts | 237° |
| 2026-05-05 20:30 | 38.09804 | -33.03105 | 34409 ft | 470 kts | 237° |
| 2026-05-05 20:31 | 38.05622 | -33.09456 | 34403 ft | 470 kts | 237° |
| 2026-05-05 20:31 | 38.01462 | -33.15763 | 34394 ft | 469 kts | 237° |
| 2026-05-05 20:32 | 37.97240 | -33.22152 | 34390 ft | 470 kts | 237° |
| 2026-05-05 20:32 | 37.93074 | -33.28442 | 34389 ft | 468 kts | 237° |
| 2026-05-05 20:33 | 37.88903 | -33.34729 | 34377 ft | 467 kts | 237° |
| 2026-05-05 20:33 | 37.84703 | -33.41048 | 34375 ft | 468 kts | 237° |
| 2026-05-05 20:34 | 37.80516 | -33.47334 | 34377 ft | 467 kts | 237° |
| 2026-05-05 20:34 | 37.76322 | -33.53619 | 34383 ft | 467 kts | 237° |
| 2026-05-05 20:35 | 37.72144 | -33.59868 | 34383 ft | 465 kts | 237° |
| 2026-05-05 20:35 | 37.67985 | -33.66078 | 34384 ft | 467 kts | 236° |
| 2026-05-05 20:36 | 37.63786 | -33.72334 | 34391 ft | 468 kts | 236° |
| 2026-05-05 20:36 | 37.59577 | -33.78593 | 34393 ft | 469 kts | 236° |
| 2026-05-05 20:37 | 37.55348 | -33.84870 | 34395 ft | 468 kts | 236° |
| 2026-05-05 20:37 | 37.51129 | -33.91119 | 34396 ft | 467 kts | 236° |
| 2026-05-05 20:38 | 37.46946 | -33.97305 | 34397 ft | 467 kts | 236° |
| 2026-05-05 20:38 | 37.42733 | -34.03522 | 34407 ft | 466 kts | 236° |
| 2026-05-05 20:39 | 37.38533 | -34.09709 | 34407 ft | 465 kts | 236° |
| 2026-05-05 20:39 | 37.34342 | -34.15870 | 34403 ft | 465 kts | 236° |
| 2026-05-05 20:40 | 37.30151 | -34.22019 | 34405 ft | 466 kts | 236° |
| 2026-05-05 20:40 | 37.25939 | -34.28189 | 34405 ft | 465 kts | 236° |
| 2026-05-05 20:41 | 37.21735 | -34.34336 | 34403 ft | 465 kts | 236° |
| 2026-05-05 20:41 | 37.17507 | -34.40506 | 34404 ft | 464 kts | 236° |
| 2026-05-05 20:42 | 37.13288 | -34.46651 | 34397 ft | 465 kts | 236° |
| 2026-05-05 20:42 | 37.09089 | -34.52755 | 34390 ft | 465 kts | 236° |
| 2026-05-05 20:43 | 37.04895 | -34.58840 | 34384 ft | 463 kts | 236° |
| 2026-05-05 20:43 | 37.00671 | -34.64959 | 34385 ft | 466 kts | 236° |
| 2026-05-05 20:44 | 36.96436 | -34.71081 | 34393 ft | 466 kts | 235° |
| 2026-05-05 20:44 | 36.92216 | -34.77170 | 34391 ft | 462 kts | 235° |
| 2026-05-05 20:45 | 36.85874 | -34.86303 | 34379 ft | 464 kts | 235° |
| 2026-05-05 20:45 | 36.81658 | -34.92358 | 34381 ft | 465 kts | 235° |
| 2026-05-05 20:46 | 36.77425 | -34.98428 | 34378 ft | 465 kts | 235° |
| 2026-05-05 20:46 | 36.73205 | -35.04466 | 34377 ft | 463 kts | 235° |
| 2026-05-05 20:47 | 36.68961 | -35.10531 | 34375 ft | 465 kts | 235° |
| 2026-05-05 20:47 | 36.64745 | -35.16542 | 34376 ft | 462 kts | 235° |
| 2026-05-05 20:48 | 36.60486 | -35.22605 | 34376 ft | 465 kts | 235° |
| 2026-05-05 20:48 | 36.56258 | -35.28612 | 34374 ft | 463 kts | 235° |
| 2026-05-05 20:49 | 36.52029 | -35.34610 | 34374 ft | 464 kts | 235° |
| 2026-05-05 20:49 | 36.47761 | -35.40651 | 34376 ft | 463 kts | 234° |
| 2026-05-05 20:50 | 36.43536 | -35.46623 | 34375 ft | 463 kts | 234° |
| 2026-05-05 20:50 | 36.39256 | -35.52659 | 34376 ft | 464 kts | 234° |
| 2026-05-05 20:51 | 36.34966 | -35.58700 | 34373 ft | 466 kts | 235° |
| 2026-05-05 20:51 | 36.30709 | -35.64681 | 34371 ft | 462 kts | 235° |
| 2026-05-05 20:52 | 36.26445 | -35.70666 | 34384 ft | 466 kts | 234° |
| 2026-05-05 20:52 | 36.22153 | -35.76676 | 34389 ft | 464 kts | 234° |
| 2026-05-05 20:53 | 36.17900 | -35.82620 | 34389 ft | 464 kts | 234° |
| 2026-05-05 20:53 | 36.13621 | -35.88593 | 34389 ft | 464 kts | 233° |
| 2026-05-05 20:54 | 36.09323 | -35.94579 | 34377 ft | 465 kts | 234° |
| 2026-05-05 20:54 | 36.05008 | -36.00579 | 34368 ft | 465 kts | 234° |
| 2026-05-05 20:55 | 36.00747 | -36.06495 | 34365 ft | 465 kts | 233° |
| 2026-05-05 20:55 | 35.96440 | -36.12460 | 34364 ft | 464 kts | 233° |
| 2026-05-05 20:56 | 35.92164 | -36.18375 | 34366 ft | 463 kts | 234° |
| 2026-05-05 20:56 | 35.87895 | -36.24269 | 34355 ft | 462 kts | 234° |
| 2026-05-05 20:57 | 35.83612 | -36.30173 | 34354 ft | 464 kts | 233° |
| 2026-05-05 20:57 | 35.79293 | -36.36115 | 34353 ft | 463 kts | 234° |
| 2026-05-05 20:58 | 35.74952 | -36.42081 | 34351 ft | 473 kts | 234° |
| 2026-05-05 20:58 | 35.70576 | -36.48078 | 34351 ft | 472 kts | 233° |
| 2026-05-05 20:59 | 35.66195 | -36.54073 | 34353 ft | 471 kts | 233° |
| 2026-05-05 20:59 | 35.61821 | -36.60047 | 34349 ft | 471 kts | 233° |
| 2026-05-05 21:00 | 35.57429 | -36.66037 | 34355 ft | 470 kts | 233° |
| 2026-05-05 21:00 | 35.53034 | -36.72020 | 34357 ft | 472 kts | 233° |
| 2026-05-05 21:01 | 35.48637 | -36.77994 | 34362 ft | 470 kts | 233° |
| 2026-05-05 21:01 | 35.44277 | -36.83909 | 34366 ft | 470 kts | 233° |
| 2026-05-05 21:02 | 35.39888 | -36.89852 | 34366 ft | 469 kts | 233° |
| 2026-05-05 21:02 | 35.35518 | -36.95760 | 34365 ft | 469 kts | 233° |
| 2026-05-05 21:03 | 35.31136 | -37.01672 | 34369 ft | 471 kts | 233° |
| 2026-05-05 21:03 | 35.26750 | -37.07581 | 34370 ft | 469 kts | 233° |
| 2026-05-05 21:04 | 35.22378 | -37.13459 | 34366 ft | 470 kts | 233° |
| 2026-05-05 21:04 | 35.17991 | -37.19348 | 34366 ft | 468 kts | 233° |
| 2026-05-05 21:05 | 35.13617 | -37.25211 | 34365 ft | 469 kts | 233° |
| 2026-05-05 21:05 | 35.09198 | -37.31122 | 34364 ft | 470 kts | 233° |
| 2026-05-05 21:06 | 35.04821 | -37.36968 | 34364 ft | 469 kts | 233° |
| 2026-05-05 21:06 | 35.00417 | -37.42839 | 34360 ft | 470 kts | 233° |
| 2026-05-05 21:07 | 34.96005 | -37.48711 | 34351 ft | 470 kts | 233° |
| 2026-05-05 21:07 | 34.91610 | -37.54551 | 34342 ft | 472 kts | 233° |
| 2026-05-05 21:08 | 34.87162 | -37.60450 | 34345 ft | 470 kts | 233° |
| 2026-05-05 21:08 | 34.82744 | -37.66301 | 34355 ft | 472 kts | 232° |
| 2026-05-05 21:09 | 34.78301 | -37.72173 | 34361 ft | 472 kts | 232° |
| 2026-05-05 21:09 | 34.73852 | -37.78043 | 34360 ft | 471 kts | 232° |
| 2026-05-05 21:10 | 34.69432 | -37.83864 | 34362 ft | 470 kts | 232° |
| 2026-05-05 21:10 | 34.64987 | -37.89712 | 34354 ft | 472 kts | 232° |
| 2026-05-05 21:11 | 34.60543 | -37.95545 | 34356 ft | 472 kts | 232° |
| 2026-05-05 21:11 | 34.56089 | -38.01383 | 34353 ft | 474 kts | 232° |
| 2026-05-05 21:12 | 34.51650 | -38.07190 | 34352 ft | 472 kts | 232° |
| 2026-05-05 21:12 | 34.47179 | -38.13031 | 34350 ft | 471 kts | 232° |
| 2026-05-05 21:13 | 34.42711 | -38.18858 | 34350 ft | 473 kts | 232° |
| 2026-05-05 21:13 | 34.38254 | -38.24659 | 34347 ft | 472 kts | 232° |
| 2026-05-05 21:14 | 34.33781 | -38.30471 | 34344 ft | 471 kts | 232° |
| 2026-05-05 21:14 | 34.29331 | -38.36245 | 34343 ft | 471 kts | 232° |
| 2026-05-05 21:15 | 34.24853 | -38.42045 | 34342 ft | 470 kts | 232° |
| 2026-05-05 21:15 | 34.20401 | -38.47802 | 34339 ft | 472 kts | 232° |
| 2026-05-05 21:16 | 34.15905 | -38.53607 | 34332 ft | 471 kts | 232° |
| 2026-05-05 21:16 | 34.11418 | -38.59389 | 34320 ft | 472 kts | 232° |
| 2026-05-05 21:17 | 34.06939 | -38.65152 | 34321 ft | 471 kts | 231° |
| 2026-05-05 21:17 | 34.02485 | -38.70873 | 34328 ft | 471 kts | 231° |
| 2026-05-05 21:18 | 33.97993 | -38.76633 | 34327 ft | 471 kts | 231° |
| 2026-05-05 21:18 | 33.93515 | -38.82368 | 34326 ft | 471 kts | 231° |
| 2026-05-05 21:19 | 33.88998 | -38.88141 | 34325 ft | 473 kts | 231° |
| 2026-05-05 21:19 | 33.84514 | -38.93863 | 34319 ft | 471 kts | 231° |
| 2026-05-05 21:20 | 33.80020 | -38.99587 | 34322 ft | 472 kts | 231° |
| 2026-05-05 21:20 | 33.75520 | -39.05312 | 34320 ft | 470 kts | 231° |
| 2026-05-05 21:21 | 33.71037 | -39.11005 | 34321 ft | 472 kts | 231° |
| 2026-05-05 21:21 | 33.66525 | -39.16724 | 34316 ft | 471 kts | 231° |
| 2026-05-05 21:22 | 33.62014 | -39.22435 | 34323 ft | 473 kts | 231° |
| 2026-05-05 21:22 | 33.57507 | -39.28130 | 34323 ft | 472 kts | 231° |
| 2026-05-05 21:23 | 33.53001 | -39.33814 | 34328 ft | 470 kts | 231° |
| 2026-05-05 21:23 | 33.48500 | -39.39482 | 34331 ft | 470 kts | 231° |
| 2026-05-05 21:24 | 33.43982 | -39.45164 | 34329 ft | 472 kts | 231° |
| 2026-05-05 21:24 | 33.39453 | -39.50850 | 34327 ft | 470 kts | 231° |
| 2026-05-05 21:25 | 33.34916 | -39.56537 | 34324 ft | 472 kts | 231° |
| 2026-05-05 21:25 | 33.30388 | -39.62204 | 34329 ft | 472 kts | 231° |
| 2026-05-05 21:26 | 33.25867 | -39.67852 | 34331 ft | 471 kts | 231° |
| 2026-05-05 21:26 | 33.21348 | -39.73489 | 34332 ft | 472 kts | 231° |
| 2026-05-05 21:27 | 33.16812 | -39.79139 | 34332 ft | 472 kts | 230° |
| 2026-05-05 21:27 | 33.12260 | -39.84800 | 34327 ft | 473 kts | 231° |
| 2026-05-05 21:28 | 33.07707 | -39.90451 | 34327 ft | 473 kts | 231° |
| 2026-05-05 21:28 | 33.03190 | -39.96050 | 34326 ft | 473 kts | 230° |
| 2026-05-05 21:29 | 32.98659 | -40.01700 | 34324 ft | 470 kts | 232° |
| 2026-05-05 21:29 | 32.94319 | -40.07523 | 34326 ft | 469 kts | 233° |
| 2026-05-05 21:30 | 32.90006 | -40.13308 | 34323 ft | 469 kts | 233° |
| 2026-05-05 21:30 | 32.85653 | -40.19122 | 34317 ft | 470 kts | 233° |
| 2026-05-05 21:31 | 32.81294 | -40.24927 | 34313 ft | 470 kts | 232° |
| 2026-05-05 21:31 | 32.76931 | -40.30725 | 34314 ft | 471 kts | 232° |
| 2026-05-05 21:32 | 32.72560 | -40.36519 | 34309 ft | 470 kts | 232° |
| 2026-05-05 21:32 | 32.68193 | -40.42299 | 34304 ft | 471 kts | 232° |
| 2026-05-05 21:33 | 32.63825 | -40.48071 | 34306 ft | 471 kts | 232° |
| 2026-05-05 21:33 | 32.59448 | -40.53846 | 34303 ft | 471 kts | 232° |
| 2026-05-05 21:34 | 32.55076 | -40.59604 | 34300 ft | 470 kts | 232° |
| 2026-05-05 21:34 | 32.50684 | -40.65379 | 34300 ft | 471 kts | 232° |
| 2026-05-05 21:35 | 32.46290 | -40.71148 | 34305 ft | 471 kts | 232° |
| 2026-05-05 21:35 | 32.41906 | -40.76895 | 34304 ft | 472 kts | 232° |
| 2026-05-05 21:36 | 32.37505 | -40.82656 | 34306 ft | 472 kts | 232° |
| 2026-05-05 21:36 | 32.33138 | -40.88362 | 34303 ft | 472 kts | 232° |
| 2026-05-05 21:37 | 32.28732 | -40.94109 | 34305 ft | 472 kts | 232° |
| 2026-05-05 21:37 | 32.24322 | -40.99855 | 34301 ft | 471 kts | 232° |
| 2026-05-05 21:38 | 32.19888 | -41.05622 | 34302 ft | 471 kts | 232° |
| 2026-05-05 21:38 | 32.15480 | -41.11346 | 34307 ft | 472 kts | 232° |
| 2026-05-05 21:39 | 32.11065 | -41.17071 | 34299 ft | 473 kts | 232° |
| 2026-05-05 21:39 | 32.06632 | -41.22809 | 34303 ft | 473 kts | 232° |
| 2026-05-05 21:40 | 32.02206 | -41.28531 | 34303 ft | 472 kts | 232° |
| 2026-05-05 21:40 | 31.97765 | -41.34261 | 34311 ft | 472 kts | 232° |
| 2026-05-05 21:41 | 31.93364 | -41.39933 | 34305 ft | 473 kts | 232° |
| 2026-05-05 21:41 | 31.88907 | -41.45667 | 34294 ft | 472 kts | 232° |
| 2026-05-05 21:42 | 31.84483 | -41.51351 | 34297 ft | 474 kts | 232° |
| 2026-05-05 21:42 | 31.80035 | -41.57056 | 34296 ft | 474 kts | 232° |
| 2026-05-05 21:43 | 31.75586 | -41.62753 | 34290 ft | 473 kts | 232° |
| 2026-05-05 21:43 | 31.71136 | -41.68445 | 34294 ft | 474 kts | 231° |
| 2026-05-05 21:44 | 31.66672 | -41.74145 | 34291 ft | 476 kts | 231° |
| 2026-05-05 21:44 | 31.62178 | -41.79873 | 34290 ft | 476 kts | 231° |
| 2026-05-05 21:45 | 31.57717 | -41.85551 | 34290 ft | 476 kts | 231° |
| 2026-05-05 21:45 | 31.53226 | -41.91259 | 34294 ft | 475 kts | 231° |
| 2026-05-05 21:46 | 31.48749 | -41.96939 | 34290 ft | 475 kts | 231° |
| 2026-05-05 21:46 | 31.44272 | -42.02613 | 34290 ft | 475 kts | 231° |
| 2026-05-05 21:47 | 31.39776 | -42.08302 | 34290 ft | 475 kts | 231° |
| 2026-05-05 21:47 | 31.35300 | -42.13955 | 34287 ft | 475 kts | 231° |
| 2026-05-05 21:48 | 31.30784 | -42.19651 | 34285 ft | 475 kts | 231° |
| 2026-05-05 21:48 | 31.26300 | -42.25298 | 34286 ft | 475 kts | 231° |
| 2026-05-05 21:49 | 31.21808 | -42.30948 | 34283 ft | 475 kts | 231° |
| 2026-05-05 21:49 | 31.17282 | -42.36632 | 34280 ft | 476 kts | 231° |
| 2026-05-05 21:50 | 31.12796 | -42.42255 | 34283 ft | 475 kts | 231° |
| 2026-05-05 21:50 | 31.08295 | -42.47890 | 34280 ft | 474 kts | 231° |
| 2026-05-05 21:51 | 31.03786 | -42.53526 | 34281 ft | 475 kts | 231° |
| 2026-05-05 21:51 | 30.99307 | -42.59118 | 34280 ft | 474 kts | 231° |
| 2026-05-05 21:52 | 30.92552 | -42.67533 | 34284 ft | 473 kts | 230° |
| 2026-05-05 21:53 | 30.88025 | -42.73164 | 34278 ft | 475 kts | 230° |
| 2026-05-05 21:53 | 30.83512 | -42.78767 | 34274 ft | 475 kts | 230° |
| 2026-05-05 21:54 | 30.78998 | -42.84364 | 34276 ft | 475 kts | 230° |
| 2026-05-05 21:54 | 30.74472 | -42.89968 | 34276 ft | 475 kts | 230° |
| 2026-05-05 21:55 | 30.69971 | -42.95533 | 34276 ft | 475 kts | 230° |
| 2026-05-05 21:55 | 30.65439 | -43.01128 | 34274 ft | 477 kts | 230° |
| 2026-05-05 21:56 | 30.60866 | -43.06763 | 34273 ft | 476 kts | 230° |
| 2026-05-05 21:56 | 30.56351 | -43.12320 | 34272 ft | 476 kts | 230° |
| 2026-05-05 21:57 | 30.51780 | -43.17939 | 34273 ft | 476 kts | 230° |
| 2026-05-05 21:57 | 30.47235 | -43.23517 | 34269 ft | 477 kts | 230° |
| 2026-05-05 21:58 | 30.42696 | -43.29079 | 34268 ft | 477 kts | 230° |
| 2026-05-05 21:58 | 30.38125 | -43.34672 | 34268 ft | 478 kts | 230° |
| 2026-05-05 21:59 | 30.33556 | -43.40255 | 34269 ft | 477 kts | 230° |
| 2026-05-05 21:59 | 30.28990 | -43.45826 | 34263 ft | 478 kts | 230° |
| 2026-05-05 22:00 | 30.24421 | -43.51393 | 34265 ft | 477 kts | 230° |
| 2026-05-05 22:00 | 30.19845 | -43.56961 | 34262 ft | 478 kts | 230° |
| 2026-05-05 22:01 | 30.15267 | -43.62522 | 34263 ft | 477 kts | 230° |
| 2026-05-05 22:01 | 30.10686 | -43.68079 | 34266 ft | 478 kts | 230° |
| 2026-05-05 22:02 | 30.06111 | -43.73621 | 34266 ft | 478 kts | 230° |
| 2026-05-05 22:02 | 30.01532 | -43.79160 | 34263 ft | 477 kts | 230° |
| 2026-05-05 22:03 | 29.96939 | -43.84708 | 34263 ft | 479 kts | 229° |
| 2026-05-05 22:03 | 29.92324 | -43.90274 | 34263 ft | 478 kts | 229° |
| 2026-05-05 22:04 | 29.87723 | -43.95816 | 34256 ft | 478 kts | 229° |
| 2026-05-05 22:04 | 29.83113 | -44.01361 | 34257 ft | 478 kts | 229° |
| 2026-05-05 22:05 | 29.78539 | -44.06855 | 34250 ft | 479 kts | 229° |
| 2026-05-05 22:05 | 29.73936 | -44.12374 | 34254 ft | 476 kts | 229° |
| 2026-05-05 22:06 | 29.69344 | -44.17873 | 34249 ft | 478 kts | 230° |
| 2026-05-05 22:06 | 29.64711 | -44.23415 | 34249 ft | 480 kts | 229° |
| 2026-05-05 22:07 | 29.60118 | -44.28901 | 34246 ft | 478 kts | 229° |
| 2026-05-05 22:07 | 29.55483 | -44.34428 | 34252 ft | 479 kts | 229° |
| 2026-05-05 22:08 | 29.50850 | -44.39945 | 34247 ft | 480 kts | 230° |
| 2026-05-05 22:08 | 29.46238 | -44.45430 | 34245 ft | 480 kts | 230° |